UNEE

Kemerovo Airport

Kemerovo, Russian Federation
TAF UNEE 192000Z 1921/2021 16003G08MPS 5000 -SN BKN011 TEMPO 1921/2003 0300 FZFG VV001 BECMG 2003/2004 20008G13MPS TEMPO 2003/2021 3100 -SHSN SCT004 BKN011CB
Issued Valid From Valid To
Nov-19 @ 20:00 UTC
(2 hours ago)
Nov-19 @ 21:00 UTC
(an hour ago)
Nov-20 @ 21:00 UTC
(in 23 hours)
Nov-19 @ 21:00 to Nov-20 @ 03:00
TAF UNEE 192000Z 1921/2021 16003G08MPS 5000 -SN BKN011
Wind Visibility Clouds Conditions
160° at 6 knots
 Gusting to 16 knots
5,005 meters
  • Broken at 1,100' AGL
  • Light Snow
Temporary Nov-19 @ 21:00 to Nov-20 @ 03:00
TEMPO 1921/2003 0300 FZFG VV001
Visibility Clouds Conditions
306 meters
  • Vertical visibility at 100' AGL
  • Freezing
  • Fog
Temporary Nov-20 @ 03:00 to Nov-20 @ 21:00
TEMPO 2003/2021 3100 -SHSN SCT004 BKN011CB
Visibility Clouds Conditions
3,106 meters
  • Scattered at 400' AGL
  • Broken at 1,100' AGL
  • Light Snow
Becoming Nov-20 @ 03:00 to Nov-20 @ 21:00
BECMG 2003/2004 20008G13MPS
Wind Visibility Clouds Conditions
200° at 16 knots
 Gusting to 25 knots
5,005 meters
  • Broken at 1,100' AGL
  • Light Snow
TAF UNEE 192000Z 1921/2021 16003G08MPS 5000 -SN BKN011 TEMPO 1921/2003 0300 FZFG VV001 BECMG 2003/2004 20008G13MPS TEMPO 2003/2021 3100 -SHSN SCT004 BKN011CB
Issued Nov-19 @ 20:00 UTC
(2 hours ago)
Valid From Nov-19 @ 21:00 UTC
(an hour ago)
Valid To Nov-20 @ 21:00 UTC
(in 23 hours)
Nov-19 @ 21:00 - Nov-20 @ 03:00
Wind Visibility
160° at 6 knots
 Gusting to 16 knots
5,005 meters
Clouds
  • Broken at 1,100' AGL
Conditions
  • Light Snow
Temporary Nov-19 @ 21:00 - Nov-20 @ 03:00
Clouds
  • Vertical visibility at 100' AGL
Conditions
  • Freezing
  • Fog
Temporary Nov-20 @ 03:00 - Nov-20 @ 21:00
Clouds
  • Scattered at 400' AGL
  • Broken at 1,100' AGL
Conditions
  • Light Snow
Becoming Nov-20 @ 03:00 - Nov-20 @ 21:00
Wind Visibility
200° at 16 knots
 Gusting to 25 knots
5,005 meters
Clouds
  • Broken at 1,100' AGL
Conditions
  • Light Snow